createdAt,value
2022-12-27T00:02:20.764Z,99620.00
2022-12-27T00:04:47.528Z,99623.47
2022-12-27T00:07:14.216Z,99619.16
2022-12-27T00:09:40.818Z,99627.00
2022-12-27T00:12:07.851Z,99621.81
2022-12-27T00:14:34.466Z,99625.28
2022-12-27T00:17:01.051Z,99633.03
2022-12-27T00:19:27.623Z,99625.25
2022-12-27T00:21:54.267Z,99620.88
2022-12-27T00:24:20.826Z,99624.38
2022-12-27T00:26:47.405Z,99627.00
2022-12-27T00:29:13.973Z,99626.16
2022-12-27T00:31:40.825Z,99626.16
2022-12-27T00:34:07.980Z,99622.69
2022-12-27T00:36:35.063Z,99623.53
2022-12-27T00:39:02.245Z,99629.66
2022-12-27T00:41:29.359Z,99633.06
2022-12-27T00:43:55.959Z,99639.94
2022-12-27T00:46:22.563Z,99639.84
2022-12-27T00:48:49.105Z,99644.06
2022-12-27T00:51:24.155Z,99639.66
2022-12-27T00:53:52.597Z,99648.25
2022-12-27T00:56:22.580Z,99645.59
2022-12-27T00:58:56.691Z,99647.16
2022-12-27T01:01:25.212Z,99646.28
2022-12-27T01:03:52.426Z,99649.66
2022-12-27T01:06:26.464Z,99646.16
2022-12-27T01:08:53.118Z,99648.72
2022-12-27T01:11:19.708Z,99649.59
2022-12-27T01:13:46.830Z,99653.91
2022-12-27T01:16:19.995Z,99647.81
2022-12-27T01:18:47.509Z,99652.13
2022-12-27T01:21:16.140Z,99653.84
2022-12-27T01:23:42.932Z,99654.69
2022-12-27T01:26:16.961Z,99662.44
2022-12-27T01:28:44.215Z,99658.13
2022-12-27T01:31:14.025Z,99669.34
2022-12-27T01:33:41.337Z,99667.63
2022-12-27T01:36:14.361Z,99671.06
2022-12-27T01:38:43.320Z,99668.47
2022-12-27T01:41:34.087Z,99679.69
2022-12-27T01:44:01.579Z,99676.22
2022-12-27T01:46:29.701Z,99687.50
2022-12-27T01:48:56.617Z,99683.19
2022-12-27T01:51:23.470Z,99690.03
2022-12-27T01:53:51.971Z,99691.75
2022-12-27T01:56:31.259Z,99693.47
2022-12-27T01:59:00.183Z,99691.75
2022-12-27T02:01:30.331Z,99692.53
2022-12-27T02:04:14.852Z,99699.44
2022-12-27T02:06:41.753Z,99699.44
2022-12-27T02:09:40.507Z,99702.94
2022-12-27T02:12:09.072Z,99709.00
2022-12-27T02:14:44.999Z,99709.84
2022-12-27T02:17:24.041Z,99707.25
2022-12-27T02:20:17.390Z,99705.56
2022-12-27T02:23:36.136Z,99714.22
2022-12-27T02:26:24.666Z,99709.94
2022-12-27T02:29:09.511Z,99704.78
2022-12-27T02:32:10.531Z,99710.94
2022-12-27T02:34:59.407Z,99717.09
2022-12-27T02:37:30.797Z,99712.81
2022-12-27T02:40:19.923Z,99714.56
2022-12-27T02:43:06.255Z,99709.47
2022-12-27T02:45:56.949Z,99706.91
2022-12-27T02:48:42.136Z,99711.31
2022-12-27T02:51:51.400Z,99701.81
2022-12-27T02:54:36.924Z,99713.88
2022-12-27T02:57:33.808Z,99708.75
2022-12-27T03:00:29.565Z,99722.63
2022-12-27T03:03:21.698Z,99720.03
2022-12-27T03:06:36.424Z,99719.25
2022-12-27T03:09:48.882Z,99717.53
2022-12-27T03:13:08.647Z,99721.88
2022-12-27T03:16:05.931Z,99719.34
2022-12-27T03:18:35.439Z,99715.88
2022-12-27T03:21:23.670Z,99706.38
2022-12-27T03:24:11.754Z,99712.47
2022-12-27T03:26:42.563Z,99711.59
2022-12-27T03:29:28.803Z,99709.06
2022-12-27T03:32:17.459Z,99710.78
2022-12-27T03:35:17.359Z,99715.22
2022-12-27T03:38:16.133Z,99715.22
2022-12-27T03:41:18.837Z,99719.56
2022-12-27T03:43:45.608Z,99727.38
2022-12-27T03:46:35.549Z,99723.94
2022-12-27T03:49:21.865Z,99728.31
2022-12-27T03:52:05.961Z,99729.19
2022-12-27T03:54:36.844Z,99733.53
2022-12-27T03:57:10.366Z,99727.50
2022-12-27T03:59:37.374Z,99728.41
2022-12-27T04:02:04.758Z,99728.41
2022-12-27T04:04:31.619Z,99731.84
2022-12-27T04:06:58.477Z,99737.97
2022-12-27T04:09:44.099Z,99737.13
2022-12-27T04:12:29.456Z,99746.69
2022-12-27T04:15:14.988Z,99746.69
2022-12-27T04:18:00.324Z,99750.16
2022-12-27T04:20:45.616Z,99740.66
2022-12-27T04:23:30.803Z,99745.84
2022-12-27T04:26:16.367Z,99743.25
2022-12-27T04:29:01.447Z,99737.22
2022-12-27T04:31:46.860Z,99736.41
2022-12-27T04:34:32.098Z,99730.38
2022-12-27T04:36:58.681Z,99735.59
2022-12-27T04:39:25.213Z,99730.41
2022-12-27T04:42:10.418Z,99738.22
2022-12-27T04:44:55.405Z,99736.50
2022-12-27T04:47:41.728Z,99740.84
2022-12-27T04:50:48.020Z,99749.56
2022-12-27T04:53:38.946Z,99753.91
2022-12-27T04:56:07.250Z,99753.94
2022-12-27T04:58:34.752Z,99754.81
2022-12-27T05:01:23.607Z,99749.63
2022-12-27T05:03:53.431Z,99746.16
2022-12-27T05:06:20.425Z,99741.84
2022-12-27T05:09:06.680Z,99742.75
2022-12-27T05:11:51.882Z,99741.94
2022-12-27T05:14:18.479Z,99741.09
2022-12-27T05:16:45.129Z,99754.09
2022-12-27T05:19:14.482Z,99744.63
2022-12-27T05:22:04.133Z,99758.47
2022-12-27T05:24:50.982Z,99759.31
2022-12-27T05:27:18.055Z,99764.50
2022-12-27T05:29:45.663Z,99771.41
2022-12-27T05:32:13.471Z,99764.50
2022-12-27T05:34:41.448Z,99767.06
2022-12-27T05:37:08.598Z,99766.19
2022-12-27T05:39:35.190Z,99768.81
2022-12-27T05:42:02.011Z,99761.88
2022-12-27T05:44:28.786Z,99763.59
2022-12-27T05:46:55.795Z,99754.13
2022-12-27T05:49:22.406Z,99763.63
2022-12-27T05:51:48.955Z,99768.81
2022-12-27T05:54:15.631Z,99761.03
2022-12-27T05:56:42.210Z,99769.72
2022-12-27T05:59:08.938Z,99761.09
2022-12-27T06:01:35.677Z,99758.50
2022-12-27T06:04:02.729Z,99762.81
2022-12-27T06:06:29.536Z,99771.44
2022-12-27T06:08:56.125Z,99773.16
2022-12-27T06:11:22.837Z,99774.03
2022-12-27T06:13:52.452Z,99768.88
2022-12-27T06:16:21.161Z,99774.94
2022-12-27T06:18:48.080Z,99781.84
2022-12-27T06:21:17.812Z,99773.22
2022-12-27T06:23:45.435Z,99773.22
2022-12-27T06:26:23.376Z,99778.41
2022-12-27T06:28:50.974Z,99778.44
2022-12-27T06:31:19.322Z,99778.47
2022-12-27T06:33:46.743Z,99775.03
2022-12-27T06:36:15.987Z,99776.72
2022-12-27T06:38:42.824Z,99783.66
2022-12-27T06:41:12.119Z,99780.22
2022-12-27T06:43:39.123Z,99775.03
2022-12-27T06:46:15.230Z,99781.09
2022-12-27T06:48:44.614Z,99783.66
2022-12-27T06:51:12.729Z,99780.19
2022-12-27T06:53:39.525Z,99779.31
2022-12-27T06:56:09.003Z,99781.94
2022-12-27T06:58:35.733Z,99788.84
2022-12-27T07:01:09.514Z,99789.72
2022-12-27T07:03:36.599Z,99799.22
2022-12-27T07:06:04.540Z,99804.41
2022-12-27T07:08:31.251Z,99804.38
2022-12-27T07:11:02.119Z,99801.81
2022-12-27T07:13:29.278Z,99803.53
2022-12-27T07:15:55.874Z,99808.72
2022-12-27T07:18:22.412Z,99808.69
2022-12-27T07:20:48.943Z,99819.91
2022-12-27T07:23:19.275Z,99819.00
2022-12-27T07:25:46.119Z,99819.88
2022-12-27T07:28:12.684Z,99819.88
2022-12-27T07:30:42.054Z,99820.75
2022-12-27T07:33:09.294Z,99821.66
2022-12-27T07:35:38.634Z,99832.84
2022-12-27T07:38:08.754Z,99826.84
2022-12-27T07:40:36.961Z,99831.13
2022-12-27T07:43:04.146Z,99839.78
2022-12-27T07:45:31.083Z,99844.09
2022-12-27T07:47:58.467Z,99844.94
2022-12-27T07:50:25.090Z,99844.06
2022-12-27T07:52:51.658Z,99853.56
2022-12-27T07:55:18.193Z,99852.69
2022-12-27T07:57:44.739Z,99853.59
2022-12-27T08:00:11.805Z,99858.75
2022-12-27T08:02:38.384Z,99854.44
2022-12-27T08:05:06.132Z,99855.28
2022-12-27T08:07:33.170Z,99857.00
2022-12-27T08:09:59.889Z,99860.44
2022-12-27T08:12:26.400Z,99862.16
2022-12-27T08:14:52.993Z,99866.47
2022-12-27T08:17:22.906Z,99871.63
2022-12-27T08:19:51.836Z,99871.63
2022-12-27T08:22:18.460Z,99873.34
2022-12-27T08:24:45.024Z,99875.06
2022-12-27T08:27:11.752Z,99874.16
2022-12-27T08:29:38.378Z,99876.75
2022-12-27T08:32:05.696Z,99876.72
2022-12-27T08:34:32.250Z,99864.63
2022-12-27T08:36:58.932Z,99875.84
2022-12-27T08:39:27.330Z,99879.31
2022-12-27T08:41:54.340Z,99879.28
2022-12-27T08:44:21.177Z,99877.53
2022-12-27T08:46:47.802Z,99874.88
2022-12-27T08:49:14.334Z,99881.75
2022-12-27T08:51:41.685Z,99875.72
2022-12-27T08:54:08.720Z,99882.59
2022-12-27T08:56:35.284Z,99887.75
2022-12-27T08:59:01.945Z,99880.78
2022-12-27T09:01:29.051Z,99883.38
2022-12-27T09:03:55.748Z,99881.59
2022-12-27T09:06:23.893Z,99877.25
2022-12-27T09:08:51.832Z,99879.75
2022-12-27T09:11:25.100Z,99876.25
2022-12-27T09:13:52.057Z,99884.88
2022-12-27T09:16:20.917Z,99884.00
2022-12-27T09:18:51.832Z,99885.69
2022-12-27T09:21:20.940Z,99888.28
2022-12-27T09:23:48.603Z,99886.50
2022-12-27T09:26:18.312Z,99889.94
2022-12-27T09:28:45.372Z,99891.66
2022-12-27T09:31:13.377Z,99884.72
2022-12-27T09:33:40.672Z,99889.09
2022-12-27T09:36:12.304Z,99884.69
2022-12-27T09:38:39.690Z,99891.53
2022-12-27T09:42:25.973Z,99899.25
2022-12-27T09:44:39.611Z,99897.44
2022-12-27T09:47:19.281Z,99906.00
2022-12-27T09:49:52.558Z,99904.19
2022-12-27T09:52:26.665Z,99901.56
2022-12-27T09:55:02.622Z,99909.31
2022-12-27T09:57:42.978Z,99898.06
2022-12-27T10:00:16.894Z,99897.22
2022-12-27T10:02:45.226Z,99903.22
2022-12-27T10:05:21.910Z,99898.00
2022-12-27T10:08:25.806Z,99897.88
2022-12-27T10:11:38.949Z,99887.50
2022-12-27T10:14:22.695Z,99886.56
2022-12-27T10:17:00.007Z,99894.44
2022-12-27T10:19:52.844Z,99897.09
2022-12-27T10:22:33.666Z,99892.69
2022-12-27T10:25:04.321Z,99907.44
2022-12-27T10:27:31.454Z,99897.88
2022-12-27T10:29:59.825Z,99897.88
2022-12-27T10:32:27.018Z,99891.81
2022-12-27T10:35:01.254Z,99889.06
2022-12-27T10:37:28.525Z,99886.44
2022-12-27T10:40:04.316Z,99883.78
2022-12-27T10:42:47.598Z,99888.91
2022-12-27T10:45:36.221Z,99888.81
2022-12-27T10:48:25.124Z,99881.75
2022-12-27T10:50:59.433Z,99888.56
2022-12-27T10:53:39.088Z,99880.81
2022-12-27T10:56:20.722Z,99875.56
2022-12-27T10:58:56.516Z,99872.16
2022-12-27T11:01:28.203Z,99877.31
2022-12-27T11:04:19.399Z,99873.84
2022-12-27T11:06:49.600Z,99877.31
2022-12-27T11:09:37.550Z,99886.78
2022-12-27T11:12:18.664Z,99883.31
2022-12-27T11:14:54.781Z,99884.97
2022-12-27T11:17:26.681Z,99878.78
2022-12-27T11:19:53.948Z,99887.25
2022-12-27T11:22:20.772Z,99888.03
2022-12-27T11:24:50.027Z,99878.34
2022-12-27T11:27:28.874Z,99877.78
2022-12-27T11:29:58.819Z,99873.38
2022-12-27T11:32:25.841Z,99859.44
2022-12-27T11:34:55.730Z,99863.94
2022-12-27T11:37:26.023Z,99865.72
2022-12-27T11:40:20.275Z,99869.03
2022-12-27T11:42:52.908Z,99874.00
2022-12-27T11:45:19.638Z,99872.34
2022-12-27T11:47:57.282Z,99866.03
2022-12-27T11:50:26.796Z,99870.38
2022-12-27T11:53:30.982Z,99861.03
2022-12-27T11:56:02.477Z,99848.56
2022-12-27T11:58:31.947Z,99850.09
2022-12-27T12:01:12.151Z,99849.13
2022-12-27T12:03:52.412Z,99845.56
2022-12-27T12:06:52.980Z,99841.09
2022-12-27T12:09:50.357Z,99850.50
2022-12-27T12:12:47.771Z,99838.94
2022-12-27T12:15:47.630Z,99842.56
2022-12-27T12:18:32.408Z,99858.78
2022-12-27T12:21:36.821Z,99848.75
2022-12-27T12:24:26.446Z,99851.28
2022-12-27T12:27:14.795Z,99841.59
2022-12-27T12:29:56.752Z,99839.50
2022-12-27T12:33:01.075Z,99829.72
2022-12-27T12:35:40.339Z,99833.13
2022-12-27T12:38:20.180Z,99833.63
2022-12-27T12:41:04.877Z,99836.66
2022-12-27T12:43:37.733Z,99847.66
2022-12-27T12:46:36.286Z,99838.00
2022-12-27T12:49:48.616Z,99847.56
2022-12-27T12:52:18.904Z,99838.34
2022-12-27T12:55:21.432Z,99836.44
2022-12-27T12:58:20.163Z,99836.94
2022-12-27T13:00:52.768Z,99834.09
2022-12-27T13:03:25.437Z,99828.88
2022-12-27T13:06:04.196Z,99828.03
2022-12-27T13:08:43.202Z,99822.91
2022-12-27T13:11:22.101Z,99822.16
2022-12-27T13:14:16.238Z,99826.59
2022-12-27T13:16:55.977Z,99815.22
2022-12-27T13:19:56.788Z,99809.16
2022-12-27T13:22:40.844Z,99800.56
2022-12-27T13:25:25.464Z,99787.41
2022-12-27T13:28:29.697Z,99778.66
2022-12-27T13:31:08.131Z,99775.19
2022-12-27T13:33:50.090Z,99775.09
2022-12-27T13:36:55.475Z,99767.38
2022-12-27T13:39:26.174Z,99763.31
2022-12-27T13:42:24.520Z,99757.16
2022-12-27T13:45:20.450Z,99757.19
2022-12-27T13:48:16.345Z,99733.00
2022-12-27T13:50:52.325Z,99728.66
2022-12-27T13:53:46.680Z,99735.31
2022-12-27T13:59:22.906Z,99737.03
2022-12-27T14:01:55.769Z,99748.28
2022-12-27T14:04:45.042Z,99745.38
2022-12-27T14:08:08.858Z,99745.41
2022-12-27T14:10:37.533Z,99746.31
2022-12-27T14:13:11.212Z,99729.91
2022-12-27T14:16:05.584Z,99741.25
2022-12-27T14:18:55.897Z,99730.00
2022-12-27T14:21:34.731Z,99729.19
2022-12-27T14:24:32.329Z,99722.56
2022-12-27T14:26:59.025Z,99731.28
2022-12-27T14:29:47.381Z,99721.47
2022-12-27T14:32:47.063Z,99723.84
2022-12-27T14:35:50.495Z,99719.44
2022-12-27T14:38:51.407Z,99720.53
2022-12-27T14:41:30.100Z,99720.56
2022-12-27T14:44:25.804Z,99724.25
2022-12-27T14:46:58.212Z,99724.41
2022-12-27T14:50:02.342Z,99730.53
2022-12-27T14:53:17.816Z,99726.13
2022-12-27T14:55:53.044Z,99725.31
2022-12-27T14:58:31.628Z,99720.91
2022-12-27T15:01:21.241Z,99723.59
2022-12-27T15:04:22.985Z,99722.75
2022-12-27T15:07:04.601Z,99731.47
2022-12-27T15:09:50.181Z,99729.09
2022-12-27T15:12:29.392Z,99733.56
2022-12-27T15:15:20.464Z,99732.66
2022-12-27T15:18:12.014Z,99738.72
2022-12-27T15:21:01.493Z,99742.41
2022-12-27T15:23:28.048Z,99741.59
2022-12-27T15:26:06.773Z,99739.03
2022-12-27T15:29:38.115Z,99735.63
2022-12-27T15:32:27.373Z,99729.53
2022-12-27T15:35:24.423Z,99719.19
2022-12-27T15:38:06.638Z,99720.13
2022-12-27T15:40:33.136Z,99721.03
2022-12-27T15:43:26.206Z,99730.66
2022-12-27T15:46:23.700Z,99732.53
2022-12-27T15:49:11.904Z,99730.75
2022-12-27T15:52:00.453Z,99734.19
2022-12-27T15:54:29.847Z,99735.22
2022-12-27T15:57:16.045Z,99737.81
2022-12-27T15:59:57.720Z,99735.22
2022-12-27T16:02:28.870Z,99728.38
2022-12-27T16:05:02.434Z,99733.66
2022-12-27T16:07:50.182Z,99728.47
2022-12-27T16:10:25.666Z,99736.34
2022-12-27T16:12:54.880Z,99730.41
2022-12-27T16:15:52.527Z,99732.19
2022-12-27T16:18:19.058Z,99728.75
2022-12-27T16:21:18.461Z,99733.25
2022-12-27T16:23:45.039Z,99731.47
2022-12-27T16:26:32.620Z,99732.34
2022-12-27T16:29:03.135Z,99727.03
2022-12-27T16:31:37.926Z,99725.28
2022-12-27T16:34:13.849Z,99724.44
2022-12-27T16:36:46.600Z,99730.63
2022-12-27T16:39:21.710Z,99727.19
2022-12-27T16:41:54.529Z,99725.34
2022-12-27T16:44:23.943Z,99719.25
2022-12-27T16:46:56.881Z,99714.16
2022-12-27T16:50:04.696Z,99713.22
2022-12-27T16:52:57.795Z,99711.50
2022-12-27T16:55:40.679Z,99706.34
2022-12-27T16:58:21.847Z,99721.25
2022-12-27T17:00:51.269Z,99713.50
2022-12-27T17:03:21.308Z,99710.09
2022-12-27T17:08:41.085Z,99705.09
2022-12-27T17:11:25.703Z,99706.88
2022-12-27T17:14:36.121Z,99694.06
2022-12-27T17:17:23.643Z,99692.44
2022-12-27T17:20:06.359Z,99699.50
2022-12-27T17:22:35.841Z,99704.78
2022-12-27T17:25:03.729Z,99689.31
2022-12-27T17:27:55.216Z,99695.44
2022-12-27T17:30:25.369Z,99693.00
2022-12-27T17:33:40.028Z,99689.63
2022-12-27T17:36:18.251Z,99683.66
2022-12-27T17:38:54.317Z,99687.19
2022-12-27T17:41:51.851Z,99682.91
2022-12-27T17:44:50.395Z,99679.53
2022-12-27T17:47:41.944Z,99676.22
2022-12-27T17:50:14.911Z,99671.16
2022-12-27T17:53:00.635Z,99670.34
2022-12-27T17:55:47.331Z,99667.78
2022-12-27T17:58:16.964Z,99666.13
2022-12-27T18:00:57.508Z,99664.47
2022-12-27T18:03:30.321Z,99661.94
2022-12-27T18:05:57.016Z,99664.59
2022-12-27T18:08:29.651Z,99659.47
2022-12-27T18:10:58.202Z,99652.66
2022-12-27T18:13:27.469Z,99645.75
2022-12-27T18:15:54.964Z,99642.38
2022-12-27T18:18:33.070Z,99643.31
2022-12-27T18:21:03.963Z,99639.03
2022-12-27T18:23:40.465Z,99639.94
2022-12-27T18:26:13.635Z,99628.75
2022-12-27T18:28:41.521Z,99637.41
2022-12-27T18:31:26.612Z,99628.78
2022-12-27T18:33:58.561Z,99627.06
2022-12-27T18:36:33.910Z,99633.19
2022-12-27T18:39:19.051Z,99628.91
2022-12-27T18:41:49.077Z,99630.69
2022-12-27T18:44:27.058Z,99626.44
2022-12-27T18:46:59.366Z,99623.94
2022-12-27T18:49:30.891Z,99627.41
2022-12-27T18:51:58.260Z,99611.03
2022-12-27T18:54:27.955Z,99612.75
2022-12-27T18:56:56.338Z,99617.13
2022-12-27T18:59:27.900Z,99609.38
2022-12-27T19:01:59.656Z,99608.53
2022-12-27T19:04:31.673Z,99607.72
2022-12-27T19:07:01.274Z,99600.81
2022-12-27T19:09:35.697Z,99604.28
2022-12-27T19:12:06.565Z,99585.28
2022-12-27T19:14:46.358Z,99580.13
2022-12-27T19:17:20.990Z,99568.94
2022-12-27T19:19:51.394Z,99559.47
2022-12-27T19:22:30.277Z,99563.78
2022-12-27T19:25:02.067Z,99567.25
2022-12-27T19:27:28.708Z,99563.81
2022-12-27T19:29:55.233Z,99568.19
2022-12-27T19:32:28.753Z,99563.00
2022-12-27T19:34:59.685Z,99567.34
2022-12-27T19:37:29.418Z,99567.34
2022-12-27T19:39:57.155Z,99568.22
2022-12-27T19:42:43.705Z,99557.00
2022-12-27T19:45:17.688Z,99548.38
2022-12-27T19:47:44.459Z,99555.34
2022-12-27T19:50:12.012Z,99545.00
2022-12-27T19:52:39.271Z,99542.47
2022-12-27T19:55:09.222Z,99532.09
2022-12-27T19:57:35.828Z,99529.59
2022-12-27T20:00:08.495Z,99536.53
2022-12-27T20:02:38.944Z,99530.47
2022-12-27T20:05:06.025Z,99534.03
2022-12-27T20:07:32.647Z,99531.44
2022-12-27T20:09:59.268Z,99525.41
2022-12-27T20:12:25.857Z,99528.94
2022-12-27T20:14:53.544Z,99522.88
2022-12-27T20:17:20.468Z,99519.44
2022-12-27T20:19:47.079Z,99520.28
2022-12-27T20:22:13.693Z,99525.47
2022-12-27T20:24:40.245Z,99524.63
2022-12-27T20:27:06.843Z,99525.50
2022-12-27T20:29:33.420Z,99524.63
2022-12-27T20:32:00.532Z,99517.78
2022-12-27T20:34:27.234Z,99523.84
2022-12-27T20:36:55.359Z,99516.06
2022-12-27T20:39:22.293Z,99528.13
2022-12-27T20:41:48.908Z,99516.00
2022-12-27T20:44:15.529Z,99510.00
2022-12-27T20:46:42.099Z,99506.56
2022-12-27T20:49:08.799Z,99510.88
2022-12-27T20:51:35.338Z,99485.81
2022-12-27T20:54:02.956Z,99490.13
2022-12-27T20:56:29.953Z,99487.47
2022-12-27T20:58:56.513Z,99487.53
2022-12-27T21:01:25.825Z,99486.69
2022-12-27T21:03:55.419Z,99483.34
2022-12-27T21:06:24.730Z,99479.91
2022-12-27T21:08:56.745Z,99478.25
2022-12-27T21:11:32.320Z,99480.03
2022-12-27T21:14:00.985Z,99481.78
2022-12-27T21:16:29.651Z,99481.81
2022-12-27T21:18:57.000Z,99485.28
2022-12-27T21:21:28.388Z,99483.56
2022-12-27T21:23:56.792Z,99474.06
2022-12-27T21:26:29.056Z,99482.69
2022-12-27T21:28:56.919Z,99481.81
2022-12-27T21:31:24.104Z,99481.78
2022-12-27T21:33:51.201Z,99474.91
2022-12-27T21:36:21.267Z,99478.38
2022-12-27T21:38:49.305Z,99476.66
2022-12-27T21:41:16.817Z,99474.94
2022-12-27T21:43:44.424Z,99468.88
2022-12-27T21:46:17.030Z,99469.75
2022-12-27T21:48:44.052Z,99468.00
2022-12-27T21:51:15.823Z,99467.13
2022-12-27T21:53:43.312Z,99466.28
2022-12-27T21:56:14.513Z,99459.34
2022-12-27T21:58:42.168Z,99457.63
2022-12-27T22:01:10.963Z,99460.19
2022-12-27T22:03:39.594Z,99456.75
2022-12-27T22:06:17.804Z,99453.28
2022-12-27T22:08:46.133Z,99447.31
2022-12-27T22:11:14.210Z,99443.88
2022-12-27T22:13:41.876Z,99443.97
2022-12-27T22:16:12.821Z,99452.56
2022-12-27T22:18:42.997Z,99442.22
2022-12-27T22:21:12.208Z,99440.41
2022-12-27T22:23:41.774Z,99436.06
2022-12-27T22:26:13.954Z,99436.88
2022-12-27T22:28:41.104Z,99437.72
2022-12-27T22:31:09.792Z,99439.38
2022-12-27T22:33:37.156Z,99435.88
2022-12-27T22:36:09.007Z,99445.34
2022-12-27T22:38:36.919Z,99435.78
2022-12-27T22:41:08.476Z,99436.53
2022-12-27T22:43:35.480Z,99433.94
2022-12-27T22:46:09.949Z,99434.72
2022-12-27T22:48:37.033Z,99432.97
2022-12-27T22:51:13.580Z,99431.16
2022-12-27T22:53:40.443Z,99431.16
2022-12-27T22:56:34.829Z,99430.28
2022-12-27T22:59:02.116Z,99442.41
2022-12-27T23:01:31.601Z,99437.13
2022-12-27T23:04:00.247Z,99437.91
2022-12-27T23:06:28.350Z,99436.19
2022-12-27T23:08:55.372Z,99432.66
2022-12-27T23:11:27.817Z,99424.88
2022-12-27T23:13:57.006Z,99420.56
2022-12-27T23:16:23.582Z,99416.22
2022-12-27T23:18:50.799Z,99412.72
2022-12-27T23:21:21.523Z,99405.00
2022-12-27T23:23:50.576Z,99399.75
2022-12-27T23:26:19.167Z,99395.34
2022-12-27T23:28:47.213Z,99391.91
2022-12-27T23:31:14.437Z,99386.66
2022-12-27T23:33:42.670Z,99387.50
2022-12-27T23:36:10.921Z,99384.00
2022-12-27T23:38:37.831Z,99383.13
2022-12-27T23:41:06.944Z,99383.06
2022-12-27T23:43:52.185Z,99370.94
2022-12-27T23:46:28.753Z,99368.25
2022-12-27T23:48:58.348Z,99362.19
2022-12-27T23:51:26.324Z,99359.53
2022-12-27T23:53:52.874Z,99344.78
2022-12-27T23:56:22.333Z,99343.06
2022-12-27T23:58:50.977Z,99337.00
